sensor_id;sensor_type;location;lat;lon;timestamp;temperature;humidity
50989;DHT22;37008;52.210;21.112;2023-05-10T00:00:32;3.20;99.90
50989;DHT22;37008;52.210;21.112;2023-05-10T00:02:57;3.20;99.90
50989;DHT22;37008;52.210;21.112;2023-05-10T00:05:23;3.20;99.90
50989;DHT22;37008;52.210;21.112;2023-05-10T00:07:48;3.20;99.90
50989;DHT22;37008;52.210;21.112;2023-05-10T00:10:14;3.10;99.90
50989;DHT22;37008;52.210;21.112;2023-05-10T00:12:39;3.10;99.90
50989;DHT22;37008;52.210;21.112;2023-05-10T00:15:06;3.10;99.90
50989;DHT22;37008;52.210;21.112;2023-05-10T00:17:31;3.10;99.90
50989;DHT22;37008;52.210;21.112;2023-05-10T00:19:57;3.10;99.90
50989;DHT22;37008;52.210;21.112;2023-05-10T00:22:22;3.10;99.90
50989;DHT22;37008;52.210;21.112;2023-05-10T00:24:48;3.00;99.90
50989;DHT22;37008;52.210;21.112;2023-05-10T00:27:14;3.00;99.90
50989;DHT22;37008;52.210;21.112;2023-05-10T00:29:39;3.10;99.90
50989;DHT22;37008;52.210;21.112;2023-05-10T00:32:05;3.00;99.90
50989;DHT22;37008;52.210;21.112;2023-05-10T00:34:31;3.00;99.90
50989;DHT22;37008;52.210;21.112;2023-05-10T00:36:57;3.00;99.90
50989;DHT22;37008;52.210;21.112;2023-05-10T00:39:22;3.00;99.90
50989;DHT22;37008;52.210;21.112;2023-05-10T00:41:48;2.90;99.90
50989;DHT22;37008;52.210;21.112;2023-05-10T00:44:13;2.90;99.90
50989;DHT22;37008;52.210;21.112;2023-05-10T00:46:39;2.90;99.90
50989;DHT22;37008;52.210;21.112;2023-05-10T00:49:05;2.90;99.90
50989;DHT22;37008;52.210;21.112;2023-05-10T00:51:31;2.90;99.90
50989;DHT22;37008;52.210;21.112;2023-05-10T00:53:57;2.90;99.90
50989;DHT22;37008;52.210;21.112;2023-05-10T00:56:25;2.90;99.90
50989;DHT22;37008;52.210;21.112;2023-05-10T00:58:50;2.90;99.90
50989;DHT22;37008;52.210;21.112;2023-05-10T01:01:16;2.90;99.90
50989;DHT22;37008;52.210;21.112;2023-05-10T01:03:42;2.90;99.90
50989;DHT22;37008;52.210;21.112;2023-05-10T01:06:08;2.90;99.90
50989;DHT22;37008;52.210;21.112;2023-05-10T01:08:35;2.90;99.90
50989;DHT22;37008;52.210;21.112;2023-05-10T01:11:01;2.90;99.90
50989;DHT22;37008;52.210;21.112;2023-05-10T01:13:31;2.90;99.90
50989;DHT22;37008;52.210;21.112;2023-05-10T01:15:58;2.90;99.90
50989;DHT22;37008;52.210;21.112;2023-05-10T01:18:25;2.90;99.90
50989;DHT22;37008;52.210;21.112;2023-05-10T01:21:04;2.90;99.90
50989;DHT22;37008;52.210;21.112;2023-05-10T01:29:52;2.90;99.90
50989;DHT22;37008;52.210;21.112;2023-05-10T01:32:36;2.90;99.90
50989;DHT22;37008;52.210;21.112;2023-05-10T01:35:28;2.90;99.90
50989;DHT22;37008;52.210;21.112;2023-05-10T01:46:40;2.90;99.90
50989;DHT22;37008;52.210;21.112;2023-05-10T01:49:25;2.90;99.90
50989;DHT22;37008;52.210;21.112;2023-05-10T01:51:53;2.80;99.90
50989;DHT22;37008;52.210;21.112;2023-05-10T01:54:21;2.80;99.90
50989;DHT22;37008;52.210;21.112;2023-05-10T01:56:56;2.80;99.90
50989;DHT22;37008;52.210;21.112;2023-05-10T01:59:28;2.80;99.90
50989;DHT22;37008;52.210;21.112;2023-05-10T02:01:58;2.80;99.90
50989;DHT22;37008;52.210;21.112;2023-05-10T02:04:25;2.80;99.90
50989;DHT22;37008;52.210;21.112;2023-05-10T02:06:51;2.80;99.90
50989;DHT22;37008;52.210;21.112;2023-05-10T02:09:18;2.80;99.90
50989;DHT22;37008;52.210;21.112;2023-05-10T02:11:45;2.80;99.90
50989;DHT22;37008;52.210;21.112;2023-05-10T02:14:14;2.80;99.90
50989;DHT22;37008;52.210;21.112;2023-05-10T02:16:41;2.70;99.90
50989;DHT22;37008;52.210;21.112;2023-05-10T02:19:07;2.80;99.90
50989;DHT22;37008;52.210;21.112;2023-05-10T02:21:34;2.80;99.90
50989;DHT22;37008;52.210;21.112;2023-05-10T02:24:02;2.70;99.90
50989;DHT22;37008;52.210;21.112;2023-05-10T02:26:29;2.70;99.90
50989;DHT22;37008;52.210;21.112;2023-05-10T02:28:55;2.70;99.90
50989;DHT22;37008;52.210;21.112;2023-05-10T02:31:23;2.70;99.90
50989;DHT22;37008;52.210;21.112;2023-05-10T02:33:49;2.70;99.90
50989;DHT22;37008;52.210;21.112;2023-05-10T02:36:16;2.70;99.90
50989;DHT22;37008;52.210;21.112;2023-05-10T02:38:43;2.70;99.90
50989;DHT22;37008;52.210;21.112;2023-05-10T02:41:10;2.60;99.90
50989;DHT22;37008;52.210;21.112;2023-05-10T02:43:38;2.60;99.90
50989;DHT22;37008;52.210;21.112;2023-05-10T02:46:05;2.60;99.90
50989;DHT22;37008;52.210;21.112;2023-05-10T02:48:31;2.60;99.90
50989;DHT22;37008;52.210;21.112;2023-05-10T02:51:02;2.60;99.90
50989;DHT22;37008;52.210;21.112;2023-05-10T02:53:34;2.50;99.90
50989;DHT22;37008;52.210;21.112;2023-05-10T02:56:05;2.50;99.90
50989;DHT22;37008;52.210;21.112;2023-05-10T02:58:32;2.50;99.90
50989;DHT22;37008;52.210;21.112;2023-05-10T03:00:59;2.50;99.90
50989;DHT22;37008;52.210;21.112;2023-05-10T03:03:25;2.50;99.90
50989;DHT22;37008;52.210;21.112;2023-05-10T03:05:50;2.50;99.90
50989;DHT22;37008;52.210;21.112;2023-05-10T03:08:16;2.50;99.90
50989;DHT22;37008;52.210;21.112;2023-05-10T03:10:50;2.50;99.90
50989;DHT22;37008;52.210;21.112;2023-05-10T03:13:40;2.50;99.90
50989;DHT22;37008;52.210;21.112;2023-05-10T03:16:14;2.50;99.90
50989;DHT22;37008;52.210;21.112;2023-05-10T03:18:44;2.50;99.90
50989;DHT22;37008;52.210;21.112;2023-05-10T03:21:13;2.50;99.90
50989;DHT22;37008;52.210;21.112;2023-05-10T03:23:47;2.50;99.90
50989;DHT22;37008;52.210;21.112;2023-05-10T03:26:24;2.60;99.90
50989;DHT22;37008;52.210;21.112;2023-05-10T03:28:52;2.60;99.90
50989;DHT22;37008;52.210;21.112;2023-05-10T03:31:18;2.70;99.90
50989;DHT22;37008;52.210;21.112;2023-05-10T03:33:51;2.80;99.90
50989;DHT22;37008;52.210;21.112;2023-05-10T03:36:17;2.90;99.90
50989;DHT22;37008;52.210;21.112;2023-05-10T03:38:43;3.00;99.90
50989;DHT22;37008;52.210;21.112;2023-05-10T03:41:09;3.20;99.90
50989;DHT22;37008;52.210;21.112;2023-05-10T03:43:34;3.50;99.90
50989;DHT22;37008;52.210;21.112;2023-05-10T03:46:03;3.70;99.90
50989;DHT22;37008;52.210;21.112;2023-05-10T03:48:29;3.80;99.90
50989;DHT22;37008;52.210;21.112;2023-05-10T03:50:55;3.90;99.90
50989;DHT22;37008;52.210;21.112;2023-05-10T03:53:21;3.90;99.90
50989;DHT22;37008;52.210;21.112;2023-05-10T03:55:48;3.90;99.90
50989;DHT22;37008;52.210;21.112;2023-05-10T03:58:13;4.00;99.90
50989;DHT22;37008;52.210;21.112;2023-05-10T04:00:39;4.00;99.90
50989;DHT22;37008;52.210;21.112;2023-05-10T04:03:09;4.10;99.90
50989;DHT22;37008;52.210;21.112;2023-05-10T04:05:36;4.10;99.90
50989;DHT22;37008;52.210;21.112;2023-05-10T04:08:02;4.20;99.90
50989;DHT22;37008;52.210;21.112;2023-05-10T04:10:27;4.20;99.90
50989;DHT22;37008;52.210;21.112;2023-05-10T04:12:53;4.30;99.90
50989;DHT22;37008;52.210;21.112;2023-05-10T04:15:19;4.40;99.90
50989;DHT22;37008;52.210;21.112;2023-05-10T04:17:44;4.50;99.90
50989;DHT22;37008;52.210;21.112;2023-05-10T04:20:11;4.60;99.90
50989;DHT22;37008;52.210;21.112;2023-05-10T04:22:36;4.70;99.90
50989;DHT22;37008;52.210;21.112;2023-05-10T04:25:02;4.80;99.90
50989;DHT22;37008;52.210;21.112;2023-05-10T04:27:28;4.90;99.70
50989;DHT22;37008;52.210;21.112;2023-05-10T04:29:53;5.00;99.10
50989;DHT22;37008;52.210;21.112;2023-05-10T04:32:19;5.10;98.70
50989;DHT22;37008;52.210;21.112;2023-05-10T04:34:45;5.20;98.40
50989;DHT22;37008;52.210;21.112;2023-05-10T04:37:11;5.30;98.00
50989;DHT22;37008;52.210;21.112;2023-05-10T04:39:37;5.40;97.80
50989;DHT22;37008;52.210;21.112;2023-05-10T04:42:03;5.60;97.30
50989;DHT22;37008;52.210;21.112;2023-05-10T04:44:29;5.70;96.70
50989;DHT22;37008;52.210;21.112;2023-05-10T04:46:55;5.80;96.30
50989;DHT22;37008;52.210;21.112;2023-05-10T04:49:20;5.90;95.40
50989;DHT22;37008;52.210;21.112;2023-05-10T04:51:47;6.00;94.90
50989;DHT22;37008;52.210;21.112;2023-05-10T04:54:12;6.10;94.30
50989;DHT22;37008;52.210;21.112;2023-05-10T04:56:38;6.30;93.80
50989;DHT22;37008;52.210;21.112;2023-05-10T04:59:03;6.40;93.20
50989;DHT22;37008;52.210;21.112;2023-05-10T05:01:29;6.50;92.60
50989;DHT22;37008;52.210;21.112;2023-05-10T05:03:55;6.70;91.60
50989;DHT22;37008;52.210;21.112;2023-05-10T05:06:20;6.80;91.10
50989;DHT22;37008;52.210;21.112;2023-05-10T05:08:46;6.90;90.80
50989;DHT22;37008;52.210;21.112;2023-05-10T05:11:11;7.10;90.40
50989;DHT22;37008;52.210;21.112;2023-05-10T05:13:37;7.10;89.70
50989;DHT22;37008;52.210;21.112;2023-05-10T05:16:03;7.30;88.70
50989;DHT22;37008;52.210;21.112;2023-05-10T05:18:29;7.40;87.90
50989;DHT22;37008;52.210;21.112;2023-05-10T05:20:54;7.50;86.80
50989;DHT22;37008;52.210;21.112;2023-05-10T05:23:21;7.70;85.40
50989;DHT22;37008;52.210;21.112;2023-05-10T05:25:52;7.80;84.60
50989;DHT22;37008;52.210;21.112;2023-05-10T05:28:19;8.00;83.80
50989;DHT22;37008;52.210;21.112;2023-05-10T05:30:45;8.10;82.80
50989;DHT22;37008;52.210;21.112;2023-05-10T05:33:11;8.20;81.90
50989;DHT22;37008;52.210;21.112;2023-05-10T05:35:38;8.40;80.80
50989;DHT22;37008;52.210;21.112;2023-05-10T05:38:03;8.50;79.00
50989;DHT22;37008;52.210;21.112;2023-05-10T05:40:29;8.80;78.20
50989;DHT22;37008;52.210;21.112;2023-05-10T05:42:55;8.80;77.60
50989;DHT22;37008;52.210;21.112;2023-05-10T05:45:20;9.00;76.80
50989;DHT22;37008;52.210;21.112;2023-05-10T05:47:46;9.10;75.60
50989;DHT22;37008;52.210;21.112;2023-05-10T05:50:12;9.30;74.50
50989;DHT22;37008;52.210;21.112;2023-05-10T05:52:38;9.40;73.10
50989;DHT22;37008;52.210;21.112;2023-05-10T05:55:04;9.50;72.30
50989;DHT22;37008;52.210;21.112;2023-05-10T05:57:30;9.70;71.90
50989;DHT22;37008;52.210;21.112;2023-05-10T05:59:55;9.80;70.50
50989;DHT22;37008;52.210;21.112;2023-05-10T06:02:21;10.00;69.40
50989;DHT22;37008;52.210;21.112;2023-05-10T06:04:47;10.10;68.80
50989;DHT22;37008;52.210;21.112;2023-05-10T06:07:12;10.20;68.40
50989;DHT22;37008;52.210;21.112;2023-05-10T06:09:38;10.40;67.90
50989;DHT22;37008;52.210;21.112;2023-05-10T06:12:04;10.50;67.60
50989;DHT22;37008;52.210;21.112;2023-05-10T06:14:29;10.60;66.80
50989;DHT22;37008;52.210;21.112;2023-05-10T06:16:55;10.70;66.10
50989;DHT22;37008;52.210;21.112;2023-05-10T06:19:20;10.80;65.80
50989;DHT22;37008;52.210;21.112;2023-05-10T06:21:46;10.90;65.40
50989;DHT22;37008;52.210;21.112;2023-05-10T06:24:11;11.00;65.10
50989;DHT22;37008;52.210;21.112;2023-05-10T06:26:37;11.10;64.60
50989;DHT22;37008;52.210;21.112;2023-05-10T06:29:02;11.20;64.40
50989;DHT22;37008;52.210;21.112;2023-05-10T06:31:28;11.40;63.00
50989;DHT22;37008;52.210;21.112;2023-05-10T06:33:54;11.50;61.10
50989;DHT22;37008;52.210;21.112;2023-05-10T06:36:19;11.70;60.70
50989;DHT22;37008;52.210;21.112;2023-05-10T06:38:45;11.90;60.80
50989;DHT22;37008;52.210;21.112;2023-05-10T06:41:12;12.00;59.90
50989;DHT22;37008;52.210;21.112;2023-05-10T06:43:37;12.10;59.50
50989;DHT22;37008;52.210;21.112;2023-05-10T06:46:06;12.20;59.40
50989;DHT22;37008;52.210;21.112;2023-05-10T06:48:32;12.20;58.50
50989;DHT22;37008;52.210;21.112;2023-05-10T06:50:58;12.40;58.30
50989;DHT22;37008;52.210;21.112;2023-05-10T06:53:23;12.50;58.40
50989;DHT22;37008;52.210;21.112;2023-05-10T06:55:49;12.60;58.30
50989;DHT22;37008;52.210;21.112;2023-05-10T06:58:15;12.70;57.50
50989;DHT22;37008;52.210;21.112;2023-05-10T07:00:40;12.80;57.20
50989;DHT22;37008;52.210;21.112;2023-05-10T07:03:09;12.90;56.90
50989;DHT22;37008;52.210;21.112;2023-05-10T07:05:35;13.00;56.80
50989;DHT22;37008;52.210;21.112;2023-05-10T07:08:00;13.10;55.10
50989;DHT22;37008;52.210;21.112;2023-05-10T07:10:26;13.30;55.30
50989;DHT22;37008;52.210;21.112;2023-05-10T07:12:52;13.30;54.80
50989;DHT22;37008;52.210;21.112;2023-05-10T07:15:18;13.40;54.20
50989;DHT22;37008;52.210;21.112;2023-05-10T07:17:43;13.50;51.50
50989;DHT22;37008;52.210;21.112;2023-05-10T07:20:09;13.60;51.70
50989;DHT22;37008;52.210;21.112;2023-05-10T07:22:35;13.70;51.90
50989;DHT22;37008;52.210;21.112;2023-05-10T07:25:00;13.80;51.90
50989;DHT22;37008;52.210;21.112;2023-05-10T07:27:26;13.80;51.90
50989;DHT22;37008;52.210;21.112;2023-05-10T07:29:52;13.90;51.50
50989;DHT22;37008;52.210;21.112;2023-05-10T07:32:17;14.00;50.80
50989;DHT22;37008;52.210;21.112;2023-05-10T07:34:43;14.10;50.70
50989;DHT22;37008;52.210;21.112;2023-05-10T07:37:08;14.20;50.00
50989;DHT22;37008;52.210;21.112;2023-05-10T07:39:34;14.30;49.60
50989;DHT22;37008;52.210;21.112;2023-05-10T07:41:59;14.40;49.80
50989;DHT22;37008;52.210;21.112;2023-05-10T07:44:25;14.40;49.40
50989;DHT22;37008;52.210;21.112;2023-05-10T07:46:51;14.60;48.60
50989;DHT22;37008;52.210;21.112;2023-05-10T07:49:17;14.60;48.10
50989;DHT22;37008;52.210;21.112;2023-05-10T07:51:42;14.60;47.00
50989;DHT22;37008;52.210;21.112;2023-05-10T07:54:08;14.60;47.20
50989;DHT22;37008;52.210;21.112;2023-05-10T07:56:34;14.70;47.00
50989;DHT22;37008;52.210;21.112;2023-05-10T07:59:01;14.70;46.80
50989;DHT22;37008;52.210;21.112;2023-05-10T08:01:30;14.80;45.50
50989;DHT22;37008;52.210;21.112;2023-05-10T08:03:56;14.90;43.50
50989;DHT22;37008;52.210;21.112;2023-05-10T08:06:21;14.80;42.10
50989;DHT22;37008;52.210;21.112;2023-05-10T08:08:48;14.90;42.40
50989;DHT22;37008;52.210;21.112;2023-05-10T08:11:21;14.90;43.00
50989;DHT22;37008;52.210;21.112;2023-05-10T08:13:48;15.00;43.20
50989;DHT22;37008;52.210;21.112;2023-05-10T08:16:14;15.10;42.50
50989;DHT22;37008;52.210;21.112;2023-05-10T08:18:40;15.20;43.20
50989;DHT22;37008;52.210;21.112;2023-05-10T08:21:06;15.20;43.60
50989;DHT22;37008;52.210;21.112;2023-05-10T08:23:32;15.30;44.00
50989;DHT22;37008;52.210;21.112;2023-05-10T08:25:57;15.30;43.00
50989;DHT22;37008;52.210;21.112;2023-05-10T08:28:23;15.30;41.70
50989;DHT22;37008;52.210;21.112;2023-05-10T08:30:49;15.30;41.30
50989;DHT22;37008;52.210;21.112;2023-05-10T08:33:15;15.30;41.20
50989;DHT22;37008;52.210;21.112;2023-05-10T08:35:41;15.30;41.20
50989;DHT22;37008;52.210;21.112;2023-05-10T08:38:06;15.30;39.70
50989;DHT22;37008;52.210;21.112;2023-05-10T08:40:32;15.30;40.40
50989;DHT22;37008;52.210;21.112;2023-05-10T08:43:10;15.30;41.70
50989;DHT22;37008;52.210;21.112;2023-05-10T08:45:40;15.40;41.80
50989;DHT22;37008;52.210;21.112;2023-05-10T08:48:07;15.50;40.90
50989;DHT22;37008;52.210;21.112;2023-05-10T08:50:38;15.50;40.20
50989;DHT22;37008;52.210;21.112;2023-05-10T08:53:11;15.50;40.30
50989;DHT22;37008;52.210;21.112;2023-05-10T08:55:37;15.60;41.20
50989;DHT22;37008;52.210;21.112;2023-05-10T08:58:04;15.60;40.90
50989;DHT22;37008;52.210;21.112;2023-05-10T09:00:31;15.70;40.90
50989;DHT22;37008;52.210;21.112;2023-05-10T09:03:00;15.70;40.70
50989;DHT22;37008;52.210;21.112;2023-05-10T09:05:27;15.70;39.70
50989;DHT22;37008;52.210;21.112;2023-05-10T09:07:53;15.80;40.70
50989;DHT22;37008;52.210;21.112;2023-05-10T09:10:19;15.80;40.70
50989;DHT22;37008;52.210;21.112;2023-05-10T09:12:45;15.80;40.90
50989;DHT22;37008;52.210;21.112;2023-05-10T09:15:12;15.90;41.00
50989;DHT22;37008;52.210;21.112;2023-05-10T09:17:40;15.90;41.10
50989;DHT22;37008;52.210;21.112;2023-05-10T09:20:06;16.00;40.80
50989;DHT22;37008;52.210;21.112;2023-05-10T09:22:33;16.00;41.20
50989;DHT22;37008;52.210;21.112;2023-05-10T09:25:15;16.10;41.50
50989;DHT22;37008;52.210;21.112;2023-05-10T09:27:44;16.20;41.80
50989;DHT22;37008;52.210;21.112;2023-05-10T09:30:15;16.30;41.80
50989;DHT22;37008;52.210;21.112;2023-05-10T09:32:45;16.30;41.60
50989;DHT22;37008;52.210;21.112;2023-05-10T09:35:12;16.30;41.40
50989;DHT22;37008;52.210;21.112;2023-05-10T09:37:43;16.40;41.30
50989;DHT22;37008;52.210;21.112;2023-05-10T09:40:17;16.40;41.20
50989;DHT22;37008;52.210;21.112;2023-05-10T09:42:52;16.40;39.30
50989;DHT22;37008;52.210;21.112;2023-05-10T09:45:18;16.40;40.00
50989;DHT22;37008;52.210;21.112;2023-05-10T09:47:45;16.40;40.40
50989;DHT22;37008;52.210;21.112;2023-05-10T09:50:10;16.40;40.60
50989;DHT22;37008;52.210;21.112;2023-05-10T09:52:50;16.30;40.50
50989;DHT22;37008;52.210;21.112;2023-05-10T09:55:20;16.40;39.40
50989;DHT22;37008;52.210;21.112;2023-05-10T09:57:46;16.40;39.40
50989;DHT22;37008;52.210;21.112;2023-05-10T10:00:18;16.50;39.50
50989;DHT22;37008;52.210;21.112;2023-05-10T10:02:48;16.50;40.10
50989;DHT22;37008;52.210;21.112;2023-05-10T10:05:19;16.70;39.90
50989;DHT22;37008;52.210;21.112;2023-05-10T10:07:45;16.80;40.20
50989;DHT22;37008;52.210;21.112;2023-05-10T10:10:11;16.90;40.70
50989;DHT22;37008;52.210;21.112;2023-05-10T10:12:40;17.00;40.50
50989;DHT22;37008;52.210;21.112;2023-05-10T10:15:08;17.00;40.30
50989;DHT22;37008;52.210;21.112;2023-05-10T10:17:36;17.00;39.90
50989;DHT22;37008;52.210;21.112;2023-05-10T10:20:03;17.00;39.90
50989;DHT22;37008;52.210;21.112;2023-05-10T10:22:29;17.00;39.60
50989;DHT22;37008;52.210;21.112;2023-05-10T10:24:55;17.00;39.30
50989;DHT22;37008;52.210;21.112;2023-05-10T10:27:28;17.00;39.20
50989;DHT22;37008;52.210;21.112;2023-05-10T10:30:09;17.10;39.10
50989;DHT22;37008;52.210;21.112;2023-05-10T10:35:16;17.10;38.10
50989;DHT22;37008;52.210;21.112;2023-05-10T10:37:46;17.10;38.10
50989;DHT22;37008;52.210;21.112;2023-05-10T10:40:28;17.10;39.20
50989;DHT22;37008;52.210;21.112;2023-05-10T10:42:55;17.10;38.90
50989;DHT22;37008;52.210;21.112;2023-05-10T10:45:22;17.20;38.70
50989;DHT22;37008;52.210;21.112;2023-05-10T10:47:47;17.20;37.60
50989;DHT22;37008;52.210;21.112;2023-05-10T10:50:13;17.30;39.20
50989;DHT22;37008;52.210;21.112;2023-05-10T10:52:42;17.40;39.30
50989;DHT22;37008;52.210;21.112;2023-05-10T10:55:10;17.40;39.60
50989;DHT22;37008;52.210;21.112;2023-05-10T10:57:53;17.40;38.70
50989;DHT22;37008;52.210;21.112;2023-05-10T11:00:29;17.40;38.60
50989;DHT22;37008;52.210;21.112;2023-05-10T11:03:03;17.40;39.00
50989;DHT22;37008;52.210;21.112;2023-05-10T11:08:11;17.50;39.20
50989;DHT22;37008;52.210;21.112;2023-05-10T11:10:38;17.50;38.60
50989;DHT22;37008;52.210;21.112;2023-05-10T11:13:08;17.60;38.40
50989;DHT22;37008;52.210;21.112;2023-05-10T11:15:36;17.50;38.10
50989;DHT22;37008;52.210;21.112;2023-05-10T11:21:00;17.60;38.60
50989;DHT22;37008;52.210;21.112;2023-05-10T11:26:09;17.70;39.50
50989;DHT22;37008;52.210;21.112;2023-05-10T11:28:43;17.80;39.10
50989;DHT22;37008;52.210;21.112;2023-05-10T11:31:10;17.80;38.70
50989;DHT22;37008;52.210;21.112;2023-05-10T11:33:49;17.90;39.00
50989;DHT22;37008;52.210;21.112;2023-05-10T11:36:29;17.90;38.60
50989;DHT22;37008;52.210;21.112;2023-05-10T11:38:56;17.90;38.40
50989;DHT22;37008;52.210;21.112;2023-05-10T11:41:22;17.90;38.70
50989;DHT22;37008;52.210;21.112;2023-05-10T11:43:55;18.00;38.60
50989;DHT22;37008;52.210;21.112;2023-05-10T11:46:23;18.00;38.50
50989;DHT22;37008;52.210;21.112;2023-05-10T11:48:51;18.00;38.40
50989;DHT22;37008;52.210;21.112;2023-05-10T11:51:24;17.90;38.70
50989;DHT22;37008;52.210;21.112;2023-05-10T11:53:52;18.00;37.70
50989;DHT22;37008;52.210;21.112;2023-05-10T11:56:18;17.90;38.40
50989;DHT22;37008;52.210;21.112;2023-05-10T11:58:43;18.00;38.60
50989;DHT22;37008;52.210;21.112;2023-05-10T12:01:09;18.00;38.30
50989;DHT22;37008;52.210;21.112;2023-05-10T12:03:36;18.00;38.10
50989;DHT22;37008;52.210;21.112;2023-05-10T12:06:03;18.10;38.70
50989;DHT22;37008;52.210;21.112;2023-05-10T12:08:29;18.20;38.90
50989;DHT22;37008;52.210;21.112;2023-05-10T12:11:06;18.20;38.10
50989;DHT22;37008;52.210;21.112;2023-05-10T12:13:36;18.30;38.30
50989;DHT22;37008;52.210;21.112;2023-05-10T12:16:22;18.40;38.30
50989;DHT22;37008;52.210;21.112;2023-05-10T12:18:52;18.40;38.30
50989;DHT22;37008;52.210;21.112;2023-05-10T12:21:22;18.40;36.60
50989;DHT22;37008;52.210;21.112;2023-05-10T12:23:50;18.30;36.70
50989;DHT22;37008;52.210;21.112;2023-05-10T12:26:16;18.30;37.80
50989;DHT22;37008;52.210;21.112;2023-05-10T12:28:42;18.40;38.00
50989;DHT22;37008;52.210;21.112;2023-05-10T12:31:08;18.40;37.90
50989;DHT22;37008;52.210;21.112;2023-05-10T12:33:38;18.40;38.10
50989;DHT22;37008;52.210;21.112;2023-05-10T12:36:05;18.40;38.20
50989;DHT22;37008;52.210;21.112;2023-05-10T12:38:36;18.50;37.70
50989;DHT22;37008;52.210;21.112;2023-05-10T12:41:08;18.50;36.90
50989;DHT22;37008;52.210;21.112;2023-05-10T12:43:35;18.60;37.20
50989;DHT22;37008;52.210;21.112;2023-05-10T12:46:10;18.60;37.50
50989;DHT22;37008;52.210;21.112;2023-05-10T12:48:37;18.70;37.50
50989;DHT22;37008;52.210;21.112;2023-05-10T12:51:04;18.60;37.30
50989;DHT22;37008;52.210;21.112;2023-05-10T12:53:30;18.60;37.90
50989;DHT22;37008;52.210;21.112;2023-05-10T12:55:56;18.70;37.20
50989;DHT22;37008;52.210;21.112;2023-05-10T12:58:21;18.70;35.90
50989;DHT22;37008;52.210;21.112;2023-05-10T13:00:47;18.60;37.00
50989;DHT22;37008;52.210;21.112;2023-05-10T13:03:13;18.60;37.40
50989;DHT22;37008;52.210;21.112;2023-05-10T13:05:38;18.60;37.50
50989;DHT22;37008;52.210;21.112;2023-05-10T13:08:04;18.60;38.10
50989;DHT22;37008;52.210;21.112;2023-05-10T13:10:30;18.70;38.50
50989;DHT22;37008;52.210;21.112;2023-05-10T13:13:00;18.70;38.10
50989;DHT22;37008;52.210;21.112;2023-05-10T13:15:26;18.80;38.10
50989;DHT22;37008;52.210;21.112;2023-05-10T13:17:52;18.80;37.90
50989;DHT22;37008;52.210;21.112;2023-05-10T13:20:18;18.80;38.30
50989;DHT22;37008;52.210;21.112;2023-05-10T13:22:44;18.90;38.20
50989;DHT22;37008;52.210;21.112;2023-05-10T13:25:10;18.90;37.40
50989;DHT22;37008;52.210;21.112;2023-05-10T13:27:37;18.90;37.10
50989;DHT22;37008;52.210;21.112;2023-05-10T13:30:03;18.90;37.50
50989;DHT22;37008;52.210;21.112;2023-05-10T13:32:29;19.00;38.20
50989;DHT22;37008;52.210;21.112;2023-05-10T13:34:55;19.10;38.20
50989;DHT22;37008;52.210;21.112;2023-05-10T13:37:21;19.20;38.60
50989;DHT22;37008;52.210;21.112;2023-05-10T13:39:47;19.20;37.40
50989;DHT22;37008;52.210;21.112;2023-05-10T13:42:13;19.20;37.10
50989;DHT22;37008;52.210;21.112;2023-05-10T13:44:39;19.10;37.30
50989;DHT22;37008;52.210;21.112;2023-05-10T13:47:05;19.10;37.50
50989;DHT22;37008;52.210;21.112;2023-05-10T13:49:31;19.10;37.90
50989;DHT22;37008;52.210;21.112;2023-05-10T13:51:56;19.20;37.20
50989;DHT22;37008;52.210;21.112;2023-05-10T13:54:23;19.10;37.20
50989;DHT22;37008;52.210;21.112;2023-05-10T14:00:11;19.10;36.30
50989;DHT22;37008;52.210;21.112;2023-05-10T14:02:37;19.20;36.70
50989;DHT22;37008;52.210;21.112;2023-05-10T14:05:04;19.20;37.10
50989;DHT22;37008;52.210;21.112;2023-05-10T14:07:29;19.30;36.80
50989;DHT22;37008;52.210;21.112;2023-05-10T14:09:56;19.40;36.40
50989;DHT22;37008;52.210;21.112;2023-05-10T14:12:21;19.50;36.10
50989;DHT22;37008;52.210;21.112;2023-05-10T14:14:47;20.00;35.10
50989;DHT22;37008;52.210;21.112;2023-05-10T14:17:12;21.10;33.60
50989;DHT22;37008;52.210;21.112;2023-05-10T14:19:38;22.30;32.20
50989;DHT22;37008;52.210;21.112;2023-05-10T14:22:04;23.40;31.30
50989;DHT22;37008;52.210;21.112;2023-05-10T14:24:29;24.40;30.80
50989;DHT22;37008;52.210;21.112;2023-05-10T14:26:55;25.10;29.70
50989;DHT22;37008;52.210;21.112;2023-05-10T14:29:21;25.70;28.80
50989;DHT22;37008;52.210;21.112;2023-05-10T14:31:47;26.20;28.40
50989;DHT22;37008;52.210;21.112;2023-05-10T14:34:13;26.60;26.80
50989;DHT22;37008;52.210;21.112;2023-05-10T14:36:38;26.70;26.00
50989;DHT22;37008;52.210;21.112;2023-05-10T14:39:04;27.00;25.80
50989;DHT22;37008;52.210;21.112;2023-05-10T14:41:30;27.10;26.20
50989;DHT22;37008;52.210;21.112;2023-05-10T14:43:56;27.40;26.50
50989;DHT22;37008;52.210;21.112;2023-05-10T14:46:21;27.60;26.00
50989;DHT22;37008;52.210;21.112;2023-05-10T14:48:47;27.80;25.70
50989;DHT22;37008;52.210;21.112;2023-05-10T14:51:13;27.90;25.00
50989;DHT22;37008;52.210;21.112;2023-05-10T14:57:00;28.10;25.40
50989;DHT22;37008;52.210;21.112;2023-05-10T14:59:28;28.10;25.10
50989;DHT22;37008;52.210;21.112;2023-05-10T15:01:54;28.20;24.40
50989;DHT22;37008;52.210;21.112;2023-05-10T15:04:20;28.20;24.30
50989;DHT22;37008;52.210;21.112;2023-05-10T15:06:46;28.10;23.70
50989;DHT22;37008;52.210;21.112;2023-05-10T15:09:12;28.00;23.10
50989;DHT22;37008;52.210;21.112;2023-05-10T15:11:37;27.90;23.60
50989;DHT22;37008;52.210;21.112;2023-05-10T15:14:03;27.90;23.70
50989;DHT22;37008;52.210;21.112;2023-05-10T15:16:29;27.80;23.20
50989;DHT22;37008;52.210;21.112;2023-05-10T15:18:54;27.70;23.30
50989;DHT22;37008;52.210;21.112;2023-05-10T15:21:20;27.70;23.70
50989;DHT22;37008;52.210;21.112;2023-05-10T15:23:46;27.70;23.40
50989;DHT22;37008;52.210;21.112;2023-05-10T15:26:12;27.80;23.60
50989;DHT22;37008;52.210;21.112;2023-05-10T15:28:37;28.10;23.60
50989;DHT22;37008;52.210;21.112;2023-05-10T15:31:06;28.30;23.10
50989;DHT22;37008;52.210;21.112;2023-05-10T15:33:31;28.30;23.10
50989;DHT22;37008;52.210;21.112;2023-05-10T15:35:57;28.20;23.50
50989;DHT22;37008;52.210;21.112;2023-05-10T15:38:22;28.10;23.50
50989;DHT22;37008;52.210;21.112;2023-05-10T15:40:48;28.10;23.20
50989;DHT22;37008;52.210;21.112;2023-05-10T15:43:14;27.80;22.20
50989;DHT22;37008;52.210;21.112;2023-05-10T15:45:40;27.50;22.70
50989;DHT22;37008;52.210;21.112;2023-05-10T15:48:06;27.30;23.10
50989;DHT22;37008;52.210;21.112;2023-05-10T15:50:31;27.20;23.20
50989;DHT22;37008;52.210;21.112;2023-05-10T15:52:57;27.10;23.30
50989;DHT22;37008;52.210;21.112;2023-05-10T15:55:22;27.00;23.50